Terminal Aerodrome Forecast
Issued by NWS Buffalo, NY

Home | Current Version | Previous Version | Text Only | Print | Product List | Glossary On
Versions: 1 2 3 4 5 6 7 8 9 10 11 12 13 14 15 16 17 18 19 20 21 22 23 24 25 26 27 28 29 30 31
000
FTUS41 KBUF 041500 AAA
TAFBUF
TAF AMD
KBUF 041519Z 0415/0512 26010KT P6SM BKN030
     FM042300 30010G16KT P6SM BKN012
     FM050300 30007KT P6SM BKN025
     FM050700 31009KT P6SM BKN035
     FM050900 30007KT P6SM BKN140=

USA.gov is the U.S. government's official web portal to all federal, state and local government web resources and services.